Time;durP1;ratioP1;P1;durP2;ratioP2;P2;SDS_P1;SDS_P2;PMS_P1;PMS_P2;Temp;Humidity;BMP_temperature;BMP_pressure;BME280_temperature;BME280_humidity;BME280_pressure;Samples;Min_cycle;Max_cycle;Signal;HPM_P1;HPM_P2
2022/02/19 00:02:16;;;;;;;12.47;3.17;;;6.50;94.00;;;;;;5073148;28;20861;-64
2022/02/19 00:04:42;;;;;;;8.10;2.10;;;6.50;94.80;;;;;;5072863;28;20425;-64
2022/02/19 00:07:11;;;;;;;7.40;2.87;;;6.50;94.70;;;;;;5072782;28;20867;-64
2022/02/19 00:09:37;;;;;;;6.67;2.00;;;6.50;94.10;;;;;;5073083;28;20447;-64
2022/02/19 00:12:04;;;;;;;5.23;1.63;;;6.50;94.20;;;;;;5073044;28;20440;-64
2022/02/19 00:14:31;;;;;;;5.80;1.93;;;6.50;94.30;;;;;;5073045;28;20471;-64
2022/02/19 00:16:58;;;;;;;6.90;2.13;;;6.60;94.50;;;;;;5072867;28;20469;-64
2022/02/19 00:19:25;;;;;;;8.67;1.70;;;6.60;94.00;;;;;;5073074;28;20444;-64
2022/02/19 00:21:51;;;;;;;8.07;2.10;;;6.60;94.40;;;;;;5072864;28;20448;-64
2022/02/19 00:24:20;;;;;;;8.23;1.60;;;6.60;94.60;;;;;;5072956;28;20444;-64
2022/02/19 00:26:46;;;;;;;12.60;2.30;;;6.60;94.80;;;;;;5072374;28;20464;-65
2022/02/19 00:29:13;;;;;;;13.67;2.53;;;6.60;94.90;;;;;;5072833;28;20440;-64
2022/02/19 00:31:40;;;;;;;7.90;2.00;;;6.60;95.10;;;;;;5072565;28;20457;-64
2022/02/19 00:34:08;;;;;;;10.63;2.00;;;6.60;94.80;;;;;;5072589;28;20932;-64
2022/02/19 00:36:35;;;;;;;8.97;2.27;;;6.60;94.90;;;;;;5076116;28;20983;-64
2022/02/19 00:39:01;;;;;;;11.70;2.23;;;6.60;95.10;;;;;;5076457;28;20802;-64
2022/02/19 00:41:29;;;;;;;13.70;2.90;;;6.50;95.20;;;;;;5076346;28;20460;-64
2022/02/19 00:43:57;;;;;;;8.73;2.90;;;6.60;95.00;;;;;;5076067;28;20936;-64
2022/02/19 00:46:24;;;;;;;13.70;2.80;;;6.50;95.00;;;;;;5075768;28;20545;-65
2022/02/19 00:48:51;;;;;;;13.57;2.73;;;6.60;94.80;;;;;;5076332;28;20534;-64
2022/02/19 00:51:18;;;;;;;7.03;2.40;;;6.60;94.10;;;;;;5076258;28;20858;-64
2022/02/19 00:53:45;;;;;;;7.30;2.03;;;6.60;93.70;;;;;;5076155;28;20448;-64
2022/02/19 00:56:12;;;;;;;9.70;2.83;;;6.60;94.10;;;;;;5076109;28;20472;-64
2022/02/19 00:58:40;;;;;;;13.33;3.10;;;6.60;94.10;;;;;;5076027;28;20441;-64
2022/02/19 01:01:07;;;;;;;9.37;2.47;;;6.60;94.10;;;;;;5076477;28;20447;-64
2022/02/19 01:03:33;;;;;;;11.63;2.60;;;6.60;94.10;;;;;;5075883;28;20553;-64
2022/02/19 01:06:00;;;;;;;13.63;2.57;;;6.60;93.80;;;;;;5075542;28;20997;-64
2022/02/19 01:08:27;;;;;;;16.87;2.83;;;6.60;94.10;;;;;;5075198;28;20492;-64
2022/02/19 01:10:54;;;;;;;6.60;2.00;;;6.60;94.40;;;;;;5075798;28;20445;-64
2022/02/19 01:13:20;;;;;;;14.97;4.07;;;6.60;94.10;;;;;;5075712;28;20441;-64
2022/02/19 01:15:49;;;;;;;11.17;2.80;;;6.60;94.00;;;;;;5075625;28;20440;-64
2022/02/19 01:18:15;;;;;;;10.43;3.13;;;6.70;93.80;;;;;;5075556;28;20827;-64
2022/02/19 01:20:45;;;;;;;9.20;2.70;;;6.70;94.00;;;;;;5075562;28;20823;-64
2022/02/19 01:23:12;;;;;;;9.20;3.20;;;6.60;94.10;;;;;;5075540;28;20547;-64
2022/02/19 01:25:39;;;;;;;11.53;2.27;;;6.60;93.80;;;;;;5075531;28;20429;-64
2022/02/19 01:28:06;;;;;;;9.40;3.70;;;6.60;93.00;;;;;;5075513;28;20508;-64
2022/02/19 01:30:33;;;;;;;8.53;2.40;;;6.60;94.20;;;;;;5075334;28;20440;-64
2022/02/19 01:33:01;;;;;;;11.20;2.33;;;6.60;94.80;;;;;;5075406;28;20444;-64
2022/02/19 01:35:28;;;;;;;15.33;3.03;;;6.60;94.20;;;;;;5075053;28;20943;-64
2022/02/19 01:37:55;;;;;;;14.80;2.60;;;6.60;93.60;;;;;;5075197;28;20465;-64
2022/02/19 01:40:21;;;;;;;7.77;2.27;;;6.60;93.50;;;;;;5075264;28;20441;-64
2022/02/19 01:42:48;;;;;;;10.57;3.27;;;6.60;93.10;;;;;;5075225;28;20445;-64
2022/02/19 01:45:16;;;;;;;9.30;2.03;;;6.60;91.80;;;;;;5075073;28;20456;-64
2022/02/19 01:47:43;;;;;;;2.53;1.80;;;6.60;89.40;;;;;;5074420;28;20488;-64
2022/02/19 01:50:11;;;;;;;6.67;1.67;;;6.60;85.70;;;;;;5075158;28;20445;-64
2022/02/19 01:52:41;;;;;;;8.83;1.30;;;6.60;88.30;;;;;;5074969;28;20447;-64
2022/02/19 01:55:08;;;;;;;5.30;1.60;;;6.50;84.20;;;;;;5074872;28;20818;-65
2022/02/19 01:57:35;;;;;;;8.03;1.57;;;6.50;82.40;;;;;;5075133;28;20475;-64
2022/02/19 02:00:03;;;;;;;3.70;1.50;;;6.50;80.80;;;;;;5075324;28;20859;-64
2022/02/19 02:02:30;;;;;;;4.80;1.77;;;6.50;80.30;;;;;;5075068;28;20441;-64
2022/02/19 02:04:56;;;;;;;6.77;1.80;;;6.50;80.30;;;;;;5074663;28;20452;-64
2022/02/19 02:07:25;;;;;;;12.50;1.40;;;6.50;79.20;;;;;;5074318;28;20504;-64
2022/02/19 02:09:52;;;;;;;7.87;2.07;;;6.50;80.00;;;;;;5074639;28;20448;-64
2022/02/19 02:12:19;;;;;;;8.60;1.60;;;6.40;79.60;;;;;;5074577;28;20506;-64
2022/02/19 02:14:46;;;;;;;4.13;1.07;;;6.40;79.20;;;;;;5074589;28;20440;-64
2022/02/19 02:17:13;;;;;;;10.93;1.70;;;6.30;78.80;;;;;;5074416;28;20468;-64
2022/02/19 02:19:41;;;;;;;7.83;1.40;;;6.30;78.30;;;;;;5074488;28;20463;-64
2022/02/19 02:22:11;;;;;;;3.20;1.20;;;6.30;78.70;;;;;;5074459;28;20444;-64
2022/02/19 02:24:38;;;;;;;3.53;0.83;;;6.30;79.20;;;;;;5074495;28;20440;-64
2022/02/19 02:27:07;;;;;;;8.97;1.80;;;6.40;79.10;;;;;;5074237;28;20465;-64
2022/02/19 02:29:40;;;;;;;6.50;1.60;;;6.40;79.50;;;;;;5074211;28;20489;-65
2022/02/19 02:32:08;;;;;;;8.53;1.57;;;6.40;80.10;;;;;;5074227;28;20433;-64
2022/02/19 02:34:34;;;;;;;3.33;1.17;;;6.40;78.40;;;;;;5074033;28;20448;-64
2022/02/19 02:37:01;;;;;;;2.67;1.20;;;6.40;79.20;;;;;;5073726;28;20480;-65
2022/02/19 02:39:29;;;;;;;5.90;1.60;;;6.40;79.90;;;;;;5073888;28;20437;-64
2022/02/19 02:41:56;;;;;;;4.87;1.17;;;6.40;79.80;;;;;;5073950;28;20445;-64
2022/02/19 02:44:23;;;;;;;5.30;1.90;;;6.40;79.90;;;;;;5073906;28;20445;-64
2022/02/19 02:46:50;;;;;;;6.17;2.80;;;6.40;80.00;;;;;;5073844;28;20464;-64
2022/02/19 02:49:17;;;;;;;6.07;1.47;;;6.40;81.40;;;;;;5073894;28;20818;-64
2022/02/19 02:51:43;;;;;;;4.17;1.70;;;6.40;81.20;;;;;;5073913;28;20517;-64
2022/02/19 02:54:10;;;;;;;6.87;2.00;;;6.50;81.40;;;;;;5073544;28;20868;-64
2022/02/19 02:56:38;;;;;;;4.97;1.93;;;6.50;81.30;;;;;;5073733;28;20464;-64
2022/02/19 02:59:05;;;;;;;7.40;1.53;;;6.40;82.30;;;;;;5072909;28;20452;-64
2022/02/19 03:01:32;;;;;;;4.33;1.13;;;6.40;81.50;;;;;;5073679;28;20460;-64
2022/02/19 03:03:58;;;;;;;8.27;1.37;;;6.40;81.50;;;;;;5073607;28;20452;-64
2022/02/19 03:06:25;;;;;;;6.57;1.80;;;6.40;82.60;;;;;;5073031;28;20444;-64
2022/02/19 03:08:52;;;;;;;8.53;1.70;;;6.40;82.80;;;;;;5073523;28;20464;-64
2022/02/19 03:11:18;;;;;;;9.73;1.87;;;6.30;82.30;;;;;;5073603;28;20440;-64
2022/02/19 03:13:46;;;;;;;5.80;1.70;;;6.40;82.30;;;;;;5073700;28;20959;-64
2022/02/19 03:16:13;;;;;;;7.30;1.47;;;6.40;82.50;;;;;;5073627;28;20452;-64
2022/02/19 03:18:40;;;;;;;6.00;1.20;;;6.40;82.40;;;;;;5073493;28;20518;-64
2022/02/19 03:21:07;;;;;;;7.00;1.30;;;6.40;81.20;;;;;;5073112;28;20450;-64
2022/02/19 03:23:34;;;;;;;4.83;1.47;;;6.30;82.10;;;;;;5073377;28;20476;-64
2022/02/19 03:26:01;;;;;;;4.77;1.20;;;6.30;83.30;;;;;;5073632;28;20433;-64
2022/02/19 03:28:28;;;;;;;3.63;1.30;;;6.30;82.70;;;;;;5072906;28;20476;-64
2022/02/19 03:30:56;;;;;;;4.30;1.30;;;6.20;81.80;;;;;;5073299;28;20453;-64
2022/02/19 03:33:23;;;;;;;8.30;1.97;;;6.20;82.80;;;;;;5073301;28;20487;-64
2022/02/19 03:35:50;;;;;;;6.77;2.13;;;6.20;83.30;;;;;;5073352;28;20432;-64
2022/02/19 03:38:17;;;;;;;5.70;1.33;;;6.20;84.30;;;;;;5073151;28;20460;-64
2022/02/19 03:40:44;;;;;;;3.87;1.53;;;6.20;84.30;;;;;;5073196;28;20484;-64
2022/02/19 03:43:10;;;;;;;19.40;3.60;;;6.20;84.50;;;;;;5073308;28;20444;-64
2022/02/19 03:45:39;;;;;;;5.80;1.57;;;6.20;84.60;;;;;;5073328;28;20812;-64
2022/02/19 03:48:07;;;;;;;7.40;1.63;;;6.20;84.30;;;;;;5073077;28;20493;-64
2022/02/19 03:50:34;;;;;;;5.23;1.43;;;6.20;85.50;;;;;;5073099;28;20449;-64
2022/02/19 03:53:01;;;;;;;7.67;1.77;;;6.20;85.20;;;;;;5073145;28;20456;-64
2022/02/19 03:55:28;;;;;;;6.13;1.07;;;6.20;85.50;;;;;;5073142;28;20440;-64
2022/02/19 03:57:55;;;;;;;5.63;1.77;;;6.20;85.80;;;;;;5072683;28;20972;-64
2022/02/19 04:00:22;;;;;;;5.83;1.53;;;6.20;85.60;;;;;;5073066;28;20444;-64
2022/02/19 04:02:48;;;;;;;13.07;1.87;;;6.10;85.60;;;;;;5073093;28;20444;-64
2022/02/19 04:05:17;;;;;;;7.20;1.90;;;6.10;86.50;;;;;;5072978;28;20449;-64
2022/02/19 04:07:44;;;;;;;7.53;1.37;;;6.00;86.00;;;;;;5072468;28;20495;-64
2022/02/19 04:10:12;;;;;;;6.40;1.37;;;6.00;86.40;;;;;;5074602;28;20491;-64
2022/02/19 04:12:38;;;;;;;6.63;1.37;;;6.10;86.70;;;;;;5076607;28;20448;-64
2022/02/19 04:15:06;;;;;;;7.03;1.40;;;6.00;86.40;;;;;;5076794;28;20457;-64
2022/02/19 04:17:33;;;;;;;4.00;1.10;;;6.00;87.30;;;;;;5076826;28;20460;-64
2022/02/19 04:19:59;;;;;;;6.70;1.40;;;6.00;87.20;;;;;;5076945;28;20515;-64
2022/02/19 04:22:28;;;;;;;6.20;1.70;;;6.00;88.00;;;;;;5076630;28;20452;-64
2022/02/19 04:24:54;;;;;;;13.43;1.63;;;6.00;87.50;;;;;;5076728;28;20453;-64
2022/02/19 04:27:21;;;;;;;4.50;1.37;;;6.00;88.00;;;;;;5076551;28;20467;-64
2022/02/19 04:29:48;;;;;;;7.00;1.90;;;6.00;87.80;;;;;;5076545;28;20480;-64
2022/02/19 04:32:15;;;;;;;5.50;1.37;;;6.00;87.70;;;;;;5076447;28;20440;-64
2022/02/19 04:34:42;;;;;;;10.23;1.43;;;6.00;87.70;;;;;;5076434;28;20457;-64
2022/02/19 04:37:09;;;;;;;9.13;1.40;;;6.10;88.00;;;;;;5076406;28;20473;-64
2022/02/19 04:39:37;;;;;;;6.60;1.70;;;6.00;88.60;;;;;;5076262;28;20436;-64
2022/02/19 04:42:05;;;;;;;4.10;1.33;;;6.10;88.20;;;;;;5076244;28;20452;-64
2022/02/19 04:44:31;;;;;;;8.20;1.60;;;6.00;88.70;;;;;;5076292;28;20452;-64
2022/02/19 04:46:58;;;;;;;9.97;2.00;;;6.00;88.00;;;;;;5076269;28;20471;-64
2022/02/19 04:49:25;;;;;;;4.10;1.40;;;5.90;88.10;;;;;;5076237;28;20512;-64
2022/02/19 04:51:51;;;;;;;8.40;1.80;;;6.00;89.00;;;;;;5076331;28;20445;-64
2022/02/19 04:54:18;;;;;;;8.80;1.40;;;6.00;88.60;;;;;;5076080;28;20502;-64
2022/02/19 04:56:46;;;;;;;3.40;1.20;;;6.00;88.80;;;;;;5076015;28;20495;-65
2022/02/19 04:59:13;;;;;;;7.13;1.30;;;6.00;88.90;;;;;;5076199;28;20437;-65
2022/02/19 05:01:40;;;;;;;10.43;1.57;;;5.90;88.30;;;;;;5075967;28;20451;-64
2022/02/19 05:04:07;;;;;;;5.67;1.37;;;5.90;88.20;;;;;;5075900;28;20448;-64
2022/02/19 05:06:34;;;;;;;3.93;1.50;;;5.90;87.70;;;;;;5075610;28;20495;-65
2022/02/19 05:09:00;;;;;;;10.70;1.40;;;5.90;88.10;;;;;;5075481;28;20472;-64
2022/02/19 05:11:27;;;;;;;6.10;1.80;;;5.90;88.70;;;;;;5075893;28;20459;-64
2022/02/19 05:13:55;;;;;;;6.57;1.40;;;5.90;89.10;;;;;;5075732;28;20488;-64
2022/02/19 05:16:22;;;;;;;11.97;1.80;;;5.90;88.60;;;;;;5075596;28;20448;-65
2022/02/19 05:18:49;;;;;;;8.37;1.87;;;5.80;88.70;;;;;;5075592;28;20445;-64
2022/02/19 05:21:16;;;;;;;5.20;1.70;;;5.80;89.30;;;;;;5074685;28;20448;-64
2022/02/19 05:23:43;;;;;;;6.93;1.90;;;5.80;89.10;;;;;;5075534;28;20445;-64
2022/02/19 05:26:10;;;;;;;8.80;1.67;;;5.70;89.70;;;;;;5075655;28;20444;-64
2022/02/19 05:28:36;;;;;;;9.63;1.10;;;5.70;90.00;;;;;;5075404;28;20836;-64
2022/02/19 05:31:04;;;;;;;7.70;1.40;;;5.70;89.70;;;;;;5075562;28;20449;-65
2022/02/19 05:33:31;;;;;;;3.13;1.37;;;5.70;89.60;;;;;;5075322;28;20866;-64
2022/02/19 05:35:58;;;;;;;10.70;1.77;;;5.60;88.60;;;;;;5075478;28;20444;-64
2022/02/19 05:38:25;;;;;;;6.10;2.13;;;5.70;89.30;;;;;;5075275;28;20472;-64
2022/02/19 05:40:54;;;;;;;4.50;1.67;;;5.60;89.30;;;;;;5075349;28;20449;-64
2022/02/19 05:43:21;;;;;;;7.37;1.53;;;5.60;89.50;;;;;;5075199;28;20495;-64
2022/02/19 05:45:48;;;;;;;6.60;1.70;;;5.60;89.60;;;;;;5075121;28;20475;-64
2022/02/19 05:48:16;;;;;;;7.43;1.73;;;5.60;89.60;;;;;;5074977;28;20558;-65
2022/02/19 05:50:44;;;;;;;12.80;2.33;;;5.50;89.90;;;;;;5075001;28;20484;-64
2022/02/19 05:53:12;;;;;;;11.63;2.57;;;5.50;89.50;;;;;;5074935;28;20445;-64
2022/02/19 05:55:39;;;;;;;6.80;1.53;;;5.50;89.80;;;;;;5074921;28;20531;-64
2022/02/19 05:58:06;;;;;;;7.20;1.40;;;5.50;89.50;;;;;;5075598;28;20468;-64
2022/02/19 06:00:33;;;;;;;4.97;1.40;;;5.50;89.70;;;;;;5074941;28;20424;-65
2022/02/19 06:03:00;;;;;;;7.10;1.40;;;5.50;90.00;;;;;;5074811;28;20444;-64
2022/02/19 06:05:28;;;;;;;9.43;1.93;;;5.50;90.20;;;;;;5074722;28;20812;-64
2022/02/19 06:07:54;;;;;;;10.27;1.67;;;5.50;90.30;;;;;;5074227;28;20508;-65
2022/02/19 06:10:21;;;;;;;7.13;1.70;;;5.50;90.00;;;;;;5074158;28;20480;-65
2022/02/19 06:12:48;;;;;;;10.77;2.70;;;5.40;90.20;;;;;;5075731;28;20449;-65
2022/02/19 06:15:15;;;;;;;10.83;1.70;;;5.40;90.10;;;;;;5076064;28;20449;-65
2022/02/19 06:17:42;;;;;;;9.80;1.73;;;5.40;89.60;;;;;;5075214;28;20475;-65
2022/02/19 06:20:09;;;;;;;7.03;1.33;;;5.40;89.70;;;;;;5074303;28;20441;-64
2022/02/19 06:22:38;;;;;;;7.57;1.40;;;5.40;90.00;;;;;;5073930;28;20962;-64
2022/02/19 06:25:05;;;;;;;7.87;1.30;;;5.40;89.80;;;;;;5074534;28;21034;-64
2022/02/19 06:27:32;;;;;;;8.50;1.70;;;5.40;90.00;;;;;;5074099;28;20468;-64
2022/02/19 06:29:59;;;;;;;11.37;2.00;;;5.40;90.40;;;;;;5074238;28;20883;-65
2022/02/19 06:32:26;;;;;;;7.10;1.50;;;5.40;90.50;;;;;;5074267;28;20462;-64
2022/02/19 06:34:53;;;;;;;6.37;1.93;;;5.30;90.50;;;;;;5074087;28;20467;-64
2022/02/19 06:37:19;;;;;;;4.93;1.53;;;5.30;90.60;;;;;;5074172;28;20461;-64
2022/02/19 06:39:47;;;;;;;9.90;2.10;;;5.30;90.70;;;;;;5073745;28;20859;-64
2022/02/19 06:42:14;;;;;;;3.37;1.43;;;5.30;90.70;;;;;;5074037;28;20444;-64
2022/02/19 06:44:41;;;;;;;10.67;2.17;;;5.30;91.00;;;;;;5073605;28;20936;-64
2022/02/19 06:47:08;;;;;;;9.13;2.00;;;5.30;91.00;;;;;;5073686;28;20464;-64
2022/02/19 06:49:35;;;;;;;6.83;2.10;;;5.30;91.40;;;;;;5073475;28;20477;-64
2022/02/19 06:52:02;;;;;;;13.40;2.37;;;5.30;91.60;;;;;;5073834;28;20459;-64
2022/02/19 06:54:28;;;;;;;7.03;1.80;;;5.20;91.80;;;;;;5075310;28;20425;-64
2022/02/19 06:56:59;;;;;;;6.70;1.70;;;5.20;92.00;;;;;;5075062;28;20475;-69
2022/02/19 06:59:25;;;;;;;10.00;1.87;;;5.20;92.20;;;;;;5073736;28;20421;-65
2022/02/19 07:01:52;;;;;;;8.13;1.97;;;5.30;92.30;;;;;;5073815;28;20481;-65
2022/02/19 07:04:19;;;;;;;12.83;2.30;;;5.30;92.60;;;;;;5073682;28;20467;-65
2022/02/19 07:06:45;;;;;;;11.13;2.30;;;5.30;92.80;;;;;;5073345;28;20488;-65
2022/02/19 07:09:12;;;;;;;12.70;3.17;;;5.30;92.90;;;;;;5073436;28;20871;-65
2022/02/19 07:11:39;;;;;;;14.70;3.37;;;5.40;93.00;;;;;;5073556;28;20451;-64
2022/02/19 07:14:08;;;;;;;8.47;2.30;;;5.40;93.00;;;;;;5073511;28;20498;-64
2022/02/19 07:16:34;;;;;;;8.13;2.40;;;5.40;93.20;;;;;;5073797;28;20451;-64
2022/02/19 07:19:01;;;;;;;10.40;2.50;;;5.40;93.40;;;;;;5073206;28;20474;-64
2022/02/19 07:21:28;;;;;;;8.50;2.23;;;5.30;93.60;;;;;;5073479;28;20519;-64
2022/02/19 07:23:54;;;;;;;11.20;2.40;;;5.30;93.70;;;;;;5073425;28;20440;-64
2022/02/19 07:26:21;;;;;;;6.90;2.90;;;5.30;93.60;;;;;;5073084;28;20471;-66
2022/02/19 07:28:48;;;;;;;11.00;1.87;;;5.30;93.70;;;;;;5073495;28;20445;-64
2022/02/19 07:31:17;;;;;;;8.57;2.03;;;5.40;94.00;;;;;;5073466;28;20476;-64
2022/02/19 07:33:43;;;;;;;9.17;1.73;;;5.30;94.00;;;;;;5073440;28;20441;-64
2022/02/19 07:36:10;;;;;;;7.27;2.03;;;5.30;93.90;;;;;;5073389;28;20775;-64
2022/02/19 07:38:37;;;;;;;8.77;1.80;;;5.40;93.60;;;;;;5073242;28;20492;-64
2022/02/19 07:41:04;;;;;;;7.90;2.60;;;5.40;93.60;;;;;;5073359;28;20441;-64
2022/02/19 07:43:30;;;;;;;15.87;2.83;;;5.40;93.90;;;;;;5073158;28;20485;-64
2022/02/19 07:45:58;;;;;;;10.40;2.10;;;5.40;93.90;;;;;;5076354;28;20522;-64
2022/02/19 07:48:26;;;;;;;11.73;2.30;;;5.40;93.90;;;;;;5077013;28;20456;-66
2022/02/19 07:59:12;;;;;;;7.63;1.80;;;5.60;93.10;;;;;;5077320;28;20401;-64
2022/02/19 08:01:39;;;;;;;13.47;1.93;;;5.60;93.40;;;;;;5077050;28;20425;-64
2022/02/19 08:04:07;;;;;;;5.47;2.13;;;5.60;93.10;;;;;;5077122;28;20448;-64
2022/02/19 08:06:34;;;;;;;9.70;1.90;;;5.60;93.30;;;;;;5076884;28;20443;-65
2022/02/19 08:09:00;;;;;;;13.40;2.20;;;5.60;93.60;;;;;;5076782;28;20524;-64
2022/02/19 08:11:27;;;;;;;9.87;2.10;;;5.70;93.40;;;;;;5077020;28;20476;-64
2022/02/19 08:13:55;;;;;;;12.37;3.30;;;5.70;92.90;;;;;;5076926;28;20448;-64
2022/02/19 08:16:22;;;;;;;8.27;2.30;;;5.80;93.10;;;;;;5076409;28;20797;-65
2022/02/19 08:18:50;;;;;;;8.07;1.60;;;5.80;92.90;;;;;;5076544;28;20951;-64
2022/02/19 08:21:20;;;;;;;9.60;2.03;;;5.90;92.90;;;;;;5076710;28;20453;-64
2022/02/19 08:23:47;;;;;;;10.70;2.30;;;5.90;92.80;;;;;;5076416;28;20953;-64
2022/02/19 08:26:18;;;;;;;9.60;1.97;;;6.00;92.80;;;;;;5076710;28;20440;-64
2022/02/19 08:28:45;;;;;;;13.13;2.60;;;5.90;92.50;;;;;;5076837;28;20436;-65
2022/02/19 08:31:11;;;;;;;13.33;2.90;;;6.00;92.90;;;;;;5076714;28;20468;-65
2022/02/19 08:33:38;;;;;;;10.97;2.50;;;6.10;92.70;;;;;;5076602;28;20453;-65
2022/02/19 08:36:05;;;;;;;11.70;2.30;;;6.10;93.00;;;;;;5076629;28;20451;-65
2022/02/19 08:38:33;;;;;;;9.23;2.60;;;6.10;92.60;;;;;;5076489;28;20464;-65
2022/02/19 08:41:00;;;;;;;13.80;3.10;;;6.20;93.10;;;;;;5076111;28;20444;-65
2022/02/19 08:43:27;;;;;;;9.57;1.70;;;6.20;93.00;;;;;;5076444;28;20455;-65
2022/02/19 08:45:53;;;;;;;11.47;2.20;;;6.20;92.70;;;;;;5076442;28;20444;-65
2022/02/19 08:48:21;;;;;;;8.50;1.87;;;6.30;92.70;;;;;;5076257;28;20467;-66
2022/02/19 08:50:47;;;;;;;10.70;1.90;;;6.30;93.10;;;;;;5076217;28;20487;-65
2022/02/19 08:53:16;;;;;;;11.60;3.27;;;6.30;93.10;;;;;;5076265;28;20452;-65
2022/02/19 08:55:44;;;;;;;16.70;2.23;;;6.40;92.70;;;;;;5075597;28;20433;-65
2022/02/19 08:58:10;;;;;;;12.97;2.00;;;6.40;92.10;;;;;;5075214;28;20474;-65
2022/02/19 09:00:38;;;;;;;11.00;2.10;;;6.50;93.00;;;;;;5075874;28;20437;-65
2022/02/19 09:03:05;;;;;;;13.90;2.77;;;6.60;93.10;;;;;;5075887;28;20449;-65
2022/02/19 09:05:32;;;;;;;6.93;1.63;;;6.60;92.00;;;;;;5076102;28;20452;-65
2022/02/19 09:07:59;;;;;;;15.90;1.80;;;6.60;92.20;;;;;;5075732;28;20476;-65
2022/02/19 09:10:25;;;;;;;10.80;4.43;;;6.70;92.30;;;;;;5075974;28;20491;-65
2022/02/19 09:12:54;;;;;;;11.20;2.23;;;6.70;92.20;;;;;;5075848;28;20440;-65
2022/02/19 09:15:23;;;;;;;12.17;1.90;;;6.80;92.00;;;;;;5075511;28;20940;-65
2022/02/19 09:17:51;;;;;;;7.30;2.27;;;6.80;91.60;;;;;;5075702;28;20475;-65
2022/02/19 09:20:19;;;;;;;7.20;1.60;;;6.90;92.50;;;;;;5075390;28;20935;-65
2022/02/19 09:22:46;;;;;;;10.20;2.53;;;7.00;92.60;;;;;;5075648;28;20441;-65
2022/02/19 09:25:13;;;;;;;13.10;2.27;;;7.10;92.20;;;;;;5075624;28;20444;-65
2022/02/19 09:27:41;;;;;;;11.03;1.83;;;7.20;91.00;;;;;;5075532;28;20460;-65
2022/02/19 09:30:11;;;;;;;10.80;2.20;;;7.20;91.60;;;;;;5075420;28;20488;-65
2022/02/19 09:32:37;;;;;;;14.77;2.23;;;7.30;91.60;;;;;;5075344;28;20440;-65
2022/02/19 09:35:05;;;;;;;10.23;2.10;;;7.40;92.40;;;;;;5075714;28;20859;-65
2022/02/19 09:37:33;;;;;;;9.70;2.40;;;7.50;91.00;;;;;;5075317;28;20559;-65
2022/02/19 09:40:00;;;;;;;14.03;2.53;;;7.40;91.20;;;;;;5075004;28;20451;-65
2022/02/19 09:42:27;;;;;;;7.57;1.80;;;7.30;91.00;;;;;;5075276;28;20444;-65
2022/02/19 09:44:56;;;;;;;9.20;2.37;;;7.30;91.40;;;;;;5075202;28;20449;-64
2022/02/19 09:47:27;;;;;;;12.63;2.60;;;7.50;91.30;;;;;;5074360;28;20927;-65
2022/02/19 09:49:54;;;;;;;10.73;2.65;;;7.60;90.50;;;;;;5074365;28;20452;-64
2022/02/19 09:52:23;;;;;;;10.77;2.07;;;7.70;90.40;;;;;;5074570;28;20722;-64
2022/02/19 09:54:50;;;;;;;5.27;1.70;;;7.60;87.80;;;;;;5074896;28;20449;-64
2022/02/19 09:57:17;;;;;;;12.63;1.80;;;7.60;90.00;;;;;;5074876;28;20461;-64
2022/02/19 09:59:44;;;;;;;14.20;2.30;;;7.70;88.80;;;;;;5074534;28;20440;-64
2022/02/19 10:02:10;;;;;;;12.10;3.20;;;7.80;90.20;;;;;;5074633;28;20964;-66
2022/02/19 10:04:43;;;;;;;12.27;2.97;;;7.80;88.80;;;;;;5075619;28;20516;-65
2022/02/19 10:07:15;;;;;;;6.80;1.90;;;7.80;88.80;;;;;;5074050;28;20489;-65
2022/02/19 10:09:43;;;;;;;8.13;1.90;;;7.80;87.50;;;;;;5074643;28;20476;-65
2022/02/19 10:12:12;;;;;;;5.93;2.80;;;7.80;87.10;;;;;;5074288;28;20484;-65
2022/02/19 10:14:40;;;;;;;9.40;1.77;;;7.80;84.20;;;;;;5074277;28;20962;-65
2022/02/19 10:17:17;;;;;;;15.17;2.63;;;8.00;88.20;;;;;;5074496;28;20464;-65
2022/02/19 10:19:57;;;;;;;11.23;1.80;;;8.10;87.60;;;;;;5074557;28;20435;-65
2022/02/19 10:22:26;;;;;;;9.40;1.70;;;8.30;88.10;;;;;;5074548;28;20433;-65
2022/02/19 10:24:54;;;;;;;10.20;1.83;;;8.40;86.30;;;;;;5074439;28;20449;-65
2022/02/19 10:27:21;;;;;;;15.83;2.70;;;8.50;85.90;;;;;;5073875;28;20469;-65
2022/02/19 10:29:54;;;;;;;7.90;1.90;;;8.50;81.80;;;;;;5074300;28;20436;-65
2022/02/19 10:32:22;;;;;;;6.63;1.70;;;8.50;83.70;;;;;;5073979;28;20969;-66
2022/02/19 10:35:00;;;;;;;6.77;1.60;;;8.40;80.60;;;;;;5074229;28;20440;-67
2022/02/19 10:37:28;;;;;;;4.80;1.80;;;8.50;81.50;;;;;;5074025;28;20452;-67
2022/02/19 10:39:57;;;;;;;7.13;2.40;;;8.50;82.40;;;;;;5074155;28;20962;-67
2022/02/19 10:42:32;;;;;;;8.70;1.90;;;8.60;82.20;;;;;;5073850;28;20433;-67
2022/02/19 10:45:05;;;;;;;5.77;1.80;;;8.70;79.20;;;;;;5074129;28;20436;-67
2022/02/19 10:47:32;;;;;;;7.07;1.87;;;8.70;76.30;;;;;;5074034;28;20487;-70
2022/02/19 10:50:13;;;;;;;8.03;3.13;;;8.70;78.20;;;;;;5073599;28;20451;-70
2022/02/19 10:52:42;;;;;;;11.00;1.63;;;8.90;78.20;;;;;;5073744;28;20922;-71
2022/02/19 10:55:11;;;;;;;10.30;1.93;;;9.20;77.70;;;;;;5073941;28;20437;-70
2022/02/19 10:57:39;;;;;;;10.50;2.10;;;9.30;76.90;;;;;;5073746;28;20461;-70
2022/02/19 11:00:13;;;;;;;9.87;3.30;;;9.30;76.90;;;;;;5073614;28;20429;-70
2022/02/19 11:02:41;;;;;;;7.60;1.43;;;9.40;76.00;;;;;;5073447;28;20448;-70
2022/02/19 11:05:11;;;;;;;5.40;1.53;;;9.50;75.80;;;;;;5073760;28;20445;-70
2022/02/19 11:07:39;;;;;;;8.60;1.60;;;9.50;76.50;;;;;;5073332;28;20823;-70
2022/02/19 11:10:06;;;;;;;6.50;2.23;;;9.60;76.30;;;;;;5073669;28;20453;-70
2022/02/19 11:12:33;;;;;;;10.10;2.30;;;9.30;76.20;;;;;;5073718;28;20448;-70
2022/02/19 11:15:00;;;;;;;10.03;2.17;;;9.10;75.50;;;;;;5073568;28;20462;-70
2022/02/19 11:17:29;;;;;;;9.67;2.03;;;9.20;77.00;;;;;;5073199;28;20968;-70
2022/02/19 11:20:00;;;;;;;6.43;1.30;;;9.50;76.60;;;;;;5072849;28;20476;-70
2022/02/19 11:22:30;;;;;;;5.67;1.77;;;9.80;75.60;;;;;;5073494;28;20451;-69
2022/02/19 11:24:57;;;;;;;11.93;1.77;;;10.10;75.50;;;;;;5073485;28;20453;-66
2022/02/19 11:27:26;;;;;;;10.27;1.97;;;10.30;69.40;;;;;;5073054;28;21018;-66
2022/02/19 11:29:55;;;;;;;16.23;2.67;;;10.10;66.30;;;;;;5073689;28;20456;-66
2022/02/19 11:32:23;;;;;;;18.17;2.73;;;10.20;71.30;;;;;;5074205;28;20555;-66
2022/02/19 11:34:50;;;;;;;20.70;2.20;;;10.50;69.20;;;;;;5073545;28;20810;-66
2022/02/19 11:37:18;;;;;;;9.47;2.33;;;10.70;67.10;;;;;;5073400;28;20476;-66
2022/02/19 11:40:01;;;;;;;12.00;2.33;;;10.80;68.10;;;;;;5073223;28;20453;-66
2022/02/19 11:42:36;;;;;;;4.73;1.30;;;10.90;66.80;;;;;;5073206;28;20483;-66
2022/02/19 11:45:26;;;;;;;13.03;2.33;;;11.10;67.10;;;;;;5073054;28;20472;-67
2022/02/19 11:47:55;;;;;;;6.73;2.17;;;11.50;62.50;;;;;;5072972;28;20445;-66
2022/02/19 11:50:25;;;;;;;6.27;1.67;;;11.40;59.60;;;;;;5073039;28;20452;-67
2022/02/19 11:53:22;;;;;;;11.27;1.57;;;10.90;63.40;;;;;;5073191;28;20453;-66
2022/02/19 11:55:51;;;;;;;6.40;1.83;;;10.60;65.90;;;;;;5072193;28;20449;-66
2022/02/19 11:58:22;;;;;;;12.13;2.00;;;10.30;64.40;;;;;;5073090;28;20465;-66
2022/02/19 12:00:54;;;;;;;15.33;1.40;;;10.10;68.10;;;;;;5073102;28;20439;-70
2022/02/19 12:03:27;;;;;;;11.23;2.33;;;10.30;66.90;;;;;;5073209;28;20437;-67
2022/02/19 12:06:18;;;;;;;4.67;1.20;;;10.30;64.50;;;;;;5073174;28;20433;-67
2022/02/19 12:09:08;;;;;;;23.77;2.83;;;10.20;66.50;;;;;;5073073;28;20539;-67
2022/02/19 12:11:59;;;;;;;10.73;2.60;;;10.00;67.90;;;;;;5072990;28;20525;-66
2022/02/19 12:15:01;;;;;;;9.57;2.37;;;9.60;70.00;;;;;;5073091;28;20483;-67
2022/02/19 12:17:43;;;;;;;6.67;1.83;;;9.20;71.50;;;;;;5072959;28;20476;-69
2022/02/19 12:20:23;;;;;;;6.60;1.80;;;9.30;74.30;;;;;;5072981;28;20448;-66
2022/02/19 12:22:52;;;;;;;6.30;1.73;;;10.00;68.50;;;;;;5073505;28;20421;-66
2022/02/19 12:25:19;;;;;;;9.70;2.03;;;10.40;67.10;;;;;;5072977;28;20494;-65
2022/02/19 12:28:17;;;;;;;11.40;1.90;;;10.40;63.00;;;;;;5072784;28;20866;-66
2022/02/19 12:30:44;;;;;;;4.67;1.63;;;9.90;64.60;;;;;;5073630;28;20502;-65
2022/02/19 12:33:12;;;;;;;12.33;1.90;;;9.70;67.10;;;;;;5076645;28;20453;-66
2022/02/19 12:35:41;;;;;;;6.60;1.57;;;9.50;67.70;;;;;;5076518;28;20877;-65
2022/02/19 12:38:08;;;;;;;7.63;1.60;;;9.50;68.20;;;;;;5076453;28;20468;-65
2022/02/19 12:40:35;;;;;;;13.23;2.10;;;9.60;67.60;;;;;;5076504;28;20452;-65
2022/02/19 12:43:03;;;;;;;5.50;1.33;;;9.50;65.20;;;;;;5076486;28;20437;-65
2022/02/19 12:45:33;;;;;;;4.00;1.03;;;9.50;67.50;;;;;;5076539;28;20494;-66
2022/02/19 12:48:00;;;;;;;2.43;1.03;;;9.70;67.70;;;;;;5076356;28;20479;-65
2022/02/19 12:50:27;;;;;;;5.37;1.13;;;10.00;63.20;;;;;;5076349;28;20449;-65
2022/02/19 12:52:54;;;;;;;4.00;1.13;;;10.40;64.10;;;;;;5075905;28;20476;-65
2022/02/19 12:55:22;;;;;;;5.53;2.13;;;11.00;61.80;;;;;;5076142;28;20850;-66
2022/02/19 12:57:51;;;;;;;6.90;1.70;;;11.40;60.90;;;;;;5076276;28;20496;-66
2022/02/19 13:00:21;;;;;;;7.00;1.33;;;11.70;57.50;;;;;;5076032;28;20429;-66
2022/02/19 13:02:55;;;;;;;7.70;1.20;;;11.90;55.90;;;;;;5076000;28;20441;-66
2022/02/19 13:05:22;;;;;;;4.57;1.30;;;12.00;56.10;;;;;;5076055;28;20425;-66
2022/02/19 13:07:49;;;;;;;6.30;1.37;;;11.50;57.60;;;;;;5075686;28;20868;-66